Flight Track Log - Related Links

Times and Time Zones

All times are in EDT time to prevent confusion due to time zone crossing. See the WIG7407 flight status page for this flight to view local times or setup timezone preferences in your user account.

Time Position Orientation Groundspeed Altitude Reporting Facility
EDT Latitude Longitude Course Direction KTS MPH feet Rate Location/Type
Fri 07:57:06 PM 44.4983 -73.4703 168° South 131 151 3,600  Level Boston Center
Fri 07:58:06 PM 44.4672 -73.4728 183° South 126 145 4,200 650 Climbing Boston Center
Fri 07:59:06 PM 44.4336 -73.4781 186° South 126 145 4,900 700 Climbing Boston Center
Fri 08:00:06 PM 44.4003 -73.4861 190° South 126 145 5,600 750 Climbing Boston Center
Fri 08:01:00 PM 44.4428 -73.5333 180° South  Level FlightAware Approximate
Fri 08:01:06 PM 44.3647 -73.4942 189° South 126 145 6,400  Level Boston Center
Fri 08:02:00 PM 44.4019 -73.5209 168° South  Level FlightAware Approximate
Fri 08:02:06 PM 44.3314 -73.5022 190° South 126 145 7,000  Level Boston Center
Fri 08:03:06 PM 44.2939 -73.5103 189° South 131 151 7,000  Level Boston Center
Fri 08:04:06 PM 44.2481 -73.5181 187° South 140 161 7,000  Level Boston Center
Fri 08:05:30 PM 44.2019 -73.5289 190° South 145 167 7,000  Level Boston Center
Fri 08:06:30 PM 44.1539 -73.5367 187° South 145 167 7,000 500 Level Boston Center
Fri 08:07:30 PM 44.1186 -73.5447 189° South 145 167 8,000 550 Climbing Boston Center
Fri 08:08:30 PM 44.0872 -73.5500 187° South 138 159 8,100  Climbing Boston Center
Fri 08:09:30 PM 44.0433 -73.5578 187° South 149 171 8,000 -50 Descending Boston Center
Fri 08:10:30 PM 44.0017 -73.5686 191° South 154 177 8,000  Level Boston Center
Fri 08:11:42 PM 43.9597 -73.5764 188° South 159 183 8,000  Level Boston Center
Fri 08:12:42 PM 43.9056 -73.5869 188° South 159 183 8,000  Level Boston Center
Fri 08:13:42 PM 43.8639 -73.5947 188° South 159 183 8,000  Level Boston Center
Fri 08:14:42 PM 43.8219 -73.6025 188° South 159 183 8,000  Level Boston Center
Fri 08:15:42 PM 43.7803 -73.6133 191° South 159 183 8,000  Level Boston Center
Fri 08:16:42 PM 43.7386 -73.6211 188° South 159 183 8,000  Level Boston Center
Fri 08:17:42 PM 43.6967 -73.6261 185° South 159 183 8,000  Level Boston Center
Fri 08:18:41 PM 43.6531 -73.6339 187° South 150 173 8,000  Level Boston Center
Fri 08:19:42 PM 43.6131 -73.6475 194° South 152 175 8,000  Level Boston Center
Fri 08:20:36 PM 43.5756 -73.6522 185° South 150 173 8,000  Level Boston Center
Fri 08:21:06 PM 43.5569 -73.6492 173° South 159 183 8,000  Level Boston Center
Fri 08:21:37 PM 43.5358 -73.6603 201° Southwest 148 170 8,000  Level Boston Center
Fri 08:22:38 PM 43.4964 -73.6650 185° South 147 169 8,000  Level Boston Center
Fri 08:23:32 PM 43.4567 -73.6728 188° South 149 171 8,000  Level Boston Center
Fri 08:24:06 PM 43.4336 -73.6753 185° South 159 183 8,000  Level Boston Center
Fri 08:25:06 PM 43.3961 -73.6831 189° South 159 183 8,000 -250 Level Boston Center
Fri 08:26:06 PM 43.3461 -73.6878 184° South 164 189 7,500 -650 Descending Boston Center
Fri 08:27:06 PM 43.3044 -73.6869 179° South 169 194 6,700 -850 Descending Boston Center
Fri 08:28:06 PM 43.2481 -73.6886 181° South 174 200 5,800 -850 Descending Boston Center
Fri 08:29:06 PM 43.2064 -73.6878 179° South 179 206 5,000 -533 Descending Boston Center
Fri 08:29:36 PM 43.1792 -73.6900 183° South 171 197 5,000 100 Level Boston Center
Fri 08:30:06 PM 43.1583 -73.6867 173° South 169 194 5,100 98 Climbing Boston Center
Fri 08:30:37 PM 43.1375 -73.6864 179° South 151 174 5,100 -462 Level Boston Center
Fri 08:31:37 PM 43.0939 -73.6911 185° South 156 180 4,400 -545 Descending Boston Center
Fri 08:32:38 PM 43.0481 -73.6931 182° South 165 190 4,000 -197 Descending Boston Center
Fri 08:33:39 PM 43.0106 -73.6894 176° South 144 166 4,000 50 Level Boston Center
Fri 08:34:39 PM 42.9667 -73.7028 193° South 145 167 4,100 -99 Climbing Boston Center
Fri 08:35:40 PM 42.9247 -73.7189 196° South 155 178 3,800 -541 Descending Boston Center
Fri 08:36:41 PM 42.8808 -73.7322 193° South 168 193 3,000 -645 Descending Boston Center
Fri 08:37:41 PM 42.8347 -73.7508 196° South 169 194 2,500 -614 Descending Boston Center
Fri 08:38:48 PM 42.7886 -73.7669 194° South 164 189 1,700 -330 Descending Boston Center
Fri 08:40:43 PM 42.7072 -73.7681 181° South 152 175 1,500 -205 Descending Boston Center
Fri 08:41:44 PM 42.6986 -73.8044 252° West 135 155 1,100 -520 Descending Boston Center
Fri 08:42:50 PM 42.7361 -73.8083 356° North 104 120 400 -636 Descending Boston Center
Fri 08:44:00 PM 42.7333 -73.8000 324° Northwest  Level FlightAware Approximate
Fri 08:51:00 PM 42.7491 -73.8020 324° Northwest  Level Estimated

Login

Don't have an account? Register now (free) for customized features, flight alerts, and more!